Biddeford, ME (04005)

1:11 PM EST on February 12, 2016 (GMT -0500)
Rotary Dr. | | Change Station
CLOSE
Current Station
Personal Weather Station
Location: Saco, ME
Elevation: 101 ft
Nearby Weather Stations
Active Advisory: Wind Chill Advisory

Elev 101 ft 43.53 °N, 70.46 °W | Updated 26 seconds ago

Partly Cloudy
Partly Cloudy
19.9 °F
Feels Like 13 °F
N
4.7
Wind Variable Wind from West
Gusts 7.3 mph

Today
High -- | Low -- °F
--% Chance of Precip.
Yesterday
High -- | Low -- °F
Precip. -- in
Pressure 30.05 in
Visibility 10.0 miles
Clouds Clear
Windchill 13 °F
Dew Point -0 °F
Humidity 41%
Rainfall 0.00 in
Snow Depth Not available.
6:45 AM 5:07 PM
Waxing Crescent, 22% visible
METAR KSFM 121755Z AUTO 24012G15KT 10SM CLR M08/M19 A3005 RMK AO1 11080 21170 57024
Pressure 30.05 in
Visibility 10.0 miles
Clouds Clear
Windchill 13 °F
Dew Point -0 °F
Humidity 41%
Rainfall 0.00 in
Snow Depth Not available.
6:45 AM 5:07 PM
Waxing Crescent, 22% visible
METAR KSFM 121755Z AUTO 24012G15KT 10SM CLR M08/M19 A3005 RMK AO1 11080 21170 57024

10-Day Weather Forecast

Almanac

Astronomy

Feb. 12, 2016 Rise Set
Actual Time
Civil Twilight
Nautical Twilight
Astronomical Twilight
Moon
Length of Visible Light
Length of Day
Tomorrow will be .
, % of the Moon is Illuminated

Today's Extremes

State Highs State Lows

Community

WunderPhotos

Upload Photos

1,892,359 photos uploaded!

WunderBlog® & News

Nearby

Air Quality

  Air Quality AQ Index Pollutant
Not available.

Snow Depth

Station Depth Elevation

Earthquake Activity

City Distance Mag. Time & Date
Minimum magnitude displayed is 2.5.

Coastal Water Temperatures

Place Temperature

Stations

Nearby Weather Stations

Station Location Temp. Windchill Dew Point Humidity Wind Precip. Elev Updated Type
                   

Watches & Warnings

Wind Chill Advisory
Issued: 12:12 PM EST Feb. 12, 2016 – National Weather Service

... Wind Chill Advisory in effect from midnight Saturday night to
10 am EST Sunday...

The National Weather Service in gray has issued a Wind Chill
Advisory... which is in effect from midnight Saturday night to
10 am EST Sunday.

* Hazard types...

* wind chill... 20 to 30 below zero.

* Timing... Saturday night and Sunday.

* Impacts... frostbite and hypothermia if unprotected from the
cold.

* Winds... northwest 15 to 20 mph with gusts up to 30 mph.

* Temperatures... 9 below to 4 above zero.

Precautionary/preparedness actions...

A Wind Chill Advisory means that very cold air and strong winds
will combine to generate low wind chills. This will result in
frost bite and lead to hypothermia if precautions are not taken.
If you must venture outdoors... make sure you wear a hat and
gloves.



Arnott